createdAt,value
2024-01-29T00:00:47.046Z,3.4
2024-01-29T00:10:48.172Z,1.5
2024-01-29T00:20:54.943Z,2.4
2024-01-29T00:30:50.219Z,3.6
2024-01-29T00:40:51.333Z,1.4
2024-01-29T00:50:52.443Z,1.4
2024-01-29T01:00:53.558Z,1.5
2024-01-29T01:10:54.518Z,1.3
2024-01-29T01:20:55.670Z,1
2024-01-29T01:30:57.797Z,1.6
2024-01-29T01:40:57.795Z,2
2024-01-29T01:51:00.167Z,1.2
2024-01-29T02:01:00.893Z,1.2
2024-01-29T02:11:01.378Z,1.2
2024-01-29T02:21:02.029Z,1.3
2024-01-29T02:31:02.993Z,1.3
2024-01-29T02:41:03.893Z,1
2024-01-29T02:51:04.846Z,1.7
2024-01-29T03:01:05.899Z,1.1
2024-01-29T03:11:06.831Z,0.9
2024-01-29T03:21:07.842Z,1
2024-01-29T03:31:08.804Z,1.6
2024-01-29T03:41:09.706Z,1.4
2024-01-29T03:51:10.640Z,2
2024-01-29T04:01:11.658Z,1
2024-01-29T04:11:12.565Z,2.7
2024-01-29T04:21:13.500Z,5.2
2024-01-29T04:31:14.490Z,6.2
2024-01-29T04:41:15.388Z,7.8
2024-01-29T04:51:16.327Z,8.6
2024-01-29T05:01:17.421Z,5.4
2024-01-29T05:11:18.168Z,2.7
2024-01-29T05:21:19.125Z,3.6
2024-01-29T05:31:20.113Z,1.2
2024-01-29T05:41:20.966Z,0.7
2024-01-29T05:51:21.860Z,2.2
2024-01-29T06:01:22.954Z,1.5
2024-01-29T06:11:23.694Z,2.4
2024-01-29T06:21:25.409Z,1.8
2024-01-29T06:31:25.386Z,1.2
2024-01-29T06:41:26.312Z,1
2024-01-29T06:51:27.238Z,1.1
2024-01-29T07:01:28.356Z,1
2024-01-29T07:11:29.036Z,1.1
2024-01-29T07:21:29.985Z,0.8
2024-01-29T07:31:30.795Z,1.3
2024-01-29T07:41:31.652Z,0.8
2024-01-29T07:51:32.598Z,1
2024-01-29T08:01:33.466Z,0.8
2024-01-29T08:11:34.235Z,0.8
2024-01-29T08:21:35.027Z,1.5
2024-01-29T08:31:35.838Z,1.5
2024-01-29T08:41:36.665Z,0.9
2024-01-29T08:51:37.522Z,1
2024-01-29T09:01:38.317Z,0.8
2024-01-29T09:11:39.073Z,1.6
2024-01-29T09:21:39.854Z,1.1
2024-01-29T09:31:40.700Z,0.8
2024-01-29T09:41:41.401Z,2.1
2024-01-29T09:51:42.315Z,1.3
2024-01-29T10:01:43.067Z,2.2
2024-01-29T10:11:43.762Z,3
2024-01-29T10:21:44.487Z,1.7
2024-01-29T10:31:45.152Z,3.2
2024-01-29T10:41:45.923Z,3.1
2024-01-29T10:51:46.657Z,2.8
2024-01-29T11:01:51.940Z,3
2024-01-29T11:11:48.178Z,2.4
2024-01-29T11:21:48.989Z,2.1
2024-01-29T11:31:49.506Z,1.2
2024-01-29T11:41:50.172Z,1.2
2024-01-29T11:51:50.950Z,0.9
2024-01-29T12:01:51.602Z,1.1
2024-01-29T12:11:52.280Z,1.3
2024-01-29T12:21:53.138Z,1.2
2024-01-29T12:31:53.829Z,1.7
2024-01-29T12:41:54.609Z,1.7
2024-01-29T12:51:55.628Z,1.2
2024-01-29T13:01:56.344Z,1.5
2024-01-29T13:11:56.903Z,1.9
2024-01-29T13:21:57.773Z,1.1
2024-01-29T13:32:00.258Z,2.2
2024-01-29T13:41:59.203Z,1.9
2024-01-29T13:52:00.289Z,1.9
2024-01-29T14:02:00.884Z,1.7
2024-01-29T14:12:01.659Z,2.7
2024-01-29T14:22:02.598Z,2.3
2024-01-29T14:32:03.338Z,3
2024-01-29T14:42:04.289Z,1.4
2024-01-29T14:52:06.140Z,2.3
2024-01-29T15:02:05.857Z,0.8
2024-01-29T15:12:06.709Z,3.8
2024-01-29T15:22:08.966Z,0.8
2024-01-29T15:32:09.581Z,2
2024-01-29T15:42:09.230Z,1.6
2024-01-29T15:52:10.181Z,0.8
2024-01-29T16:02:11.162Z,1.2
2024-01-29T16:12:11.992Z,2.6
2024-01-29T16:22:12.966Z,0.5
2024-01-29T16:32:13.992Z,0.9
2024-01-29T16:42:14.749Z,2.3
2024-01-29T16:52:17.067Z,0.6
2024-01-29T17:02:16.720Z,0.7
2024-01-29T17:12:17.493Z,1.8
2024-01-29T17:22:18.604Z,1.6
2024-01-29T17:32:21.183Z,2.3
2024-01-29T17:42:20.269Z,2.8
2024-01-29T17:52:21.248Z,1.8
2024-01-29T18:02:22.212Z,1.5
2024-01-29T18:12:23.063Z,1
2024-01-29T18:22:24.257Z,0.9
2024-01-29T18:32:25.126Z,1.4
2024-01-29T18:42:26.150Z,0.8
2024-01-29T18:52:27.252Z,2.3
2024-01-29T19:02:28.263Z,1.3
2024-01-29T19:12:29.269Z,1.2
2024-01-29T19:22:31.060Z,2.1
2024-01-29T19:32:31.382Z,1
2024-01-29T19:42:32.454Z,1
2024-01-29T19:52:33.830Z,0.8
2024-01-29T20:02:34.549Z,0.8
2024-01-29T20:12:35.685Z,1.2
2024-01-29T20:22:36.613Z,0.8
2024-01-29T20:32:37.737Z,0.7
2024-01-29T20:42:38.758Z,0.8
2024-01-29T20:52:39.799Z,0.7
2024-01-29T21:02:40.831Z,2.3
2024-01-29T21:12:41.907Z,1.5
2024-01-29T21:22:43.009Z,1.3
2024-01-29T21:32:44.184Z,0.7
2024-01-29T21:42:45.239Z,1.2
2024-01-29T21:52:46.362Z,1.3
2024-01-29T22:02:47.361Z,1.5
2024-01-29T22:12:48.429Z,2.2
2024-01-29T22:22:49.213Z,1.7
2024-01-29T22:32:50.221Z,2.7
2024-01-29T22:42:51.193Z,2.2
2024-01-29T22:52:51.957Z,3.2
2024-01-29T23:02:54.262Z,2
2024-01-29T23:12:53.750Z,5
2024-01-29T23:22:54.600Z,2.2
2024-01-29T23:32:56.535Z,3.5
2024-01-29T23:42:56.336Z,4
2024-01-29T23:52:57.160Z,3.5
